sensor_id;sensor_type;location;lat;lon;timestamp;P1;durP1;ratioP1;P2;durP2;ratioP2
28904;SDS011;60848;53.884;11.446;2022-08-16T00:02:33;18.17;;;14.65;;
28904;SDS011;60848;53.884;11.446;2022-08-16T00:05:04;15.52;;;13.80;;
28904;SDS011;60848;53.884;11.446;2022-08-16T00:07:36;17.40;;;14.23;;
28904;SDS011;60848;53.884;11.446;2022-08-16T00:10:08;15.05;;;13.45;;
28904;SDS011;60848;53.884;11.446;2022-08-16T00:12:48;15.27;;;13.60;;
28904;SDS011;60848;53.884;11.446;2022-08-16T00:15:21;14.88;;;13.38;;
28904;SDS011;60848;53.884;11.446;2022-08-16T00:18:12;16.20;;;13.73;;
28904;SDS011;60848;53.884;11.446;2022-08-16T00:20:47;14.90;;;13.40;;
28904;SDS011;60848;53.884;11.446;2022-08-16T00:23:19;15.63;;;13.00;;
28904;SDS011;60848;53.884;11.446;2022-08-16T00:26:00;17.10;;;14.30;;
28904;SDS011;60848;53.884;11.446;2022-08-16T00:28:49;16.55;;;13.75;;
28904;SDS011;60848;53.884;11.446;2022-08-16T00:31:20;14.77;;;13.27;;
28904;SDS011;60848;53.884;11.446;2022-08-16T00:33:49;14.90;;;12.93;;
28904;SDS011;60848;53.884;11.446;2022-08-16T00:36:18;14.48;;;12.98;;
28904;SDS011;60848;53.884;11.446;2022-08-16T00:38:46;15.75;;;13.38;;
28904;SDS011;60848;53.884;11.446;2022-08-16T00:41:15;14.45;;;12.95;;
28904;SDS011;60848;53.884;11.446;2022-08-16T00:43:44;15.02;;;13.35;;
28904;SDS011;60848;53.884;11.446;2022-08-16T00:49:00;15.30;;;13.23;;
28904;SDS011;60848;53.884;11.446;2022-08-16T00:51:31;19.02;;;14.25;;
28904;SDS011;60848;53.884;11.446;2022-08-16T00:54:06;17.55;;;14.50;;
28904;SDS011;60848;53.884;11.446;2022-08-16T00:56:37;18.55;;;15.00;;
28904;SDS011;60848;53.884;11.446;2022-08-16T00:59:26;15.30;;;13.70;;
28904;SDS011;60848;53.884;11.446;2022-08-16T01:02:01;15.13;;;12.70;;
28904;SDS011;60848;53.884;11.446;2022-08-16T01:04:53;17.27;;;12.65;;
28904;SDS011;60848;53.884;11.446;2022-08-16T01:07:37;16.42;;;13.90;;
28904;SDS011;60848;53.884;11.446;2022-08-16T01:10:16;14.85;;;13.20;;
28904;SDS011;60848;53.884;11.446;2022-08-16T01:12:45;14.95;;;12.73;;
28904;SDS011;60848;53.884;11.446;2022-08-16T01:15:14;15.40;;;13.23;;
28904;SDS011;60848;53.884;11.446;2022-08-16T01:17:45;14.10;;;12.63;;
28904;SDS011;60848;53.884;11.446;2022-08-16T01:20:24;15.52;;;12.93;;
28904;SDS011;60848;53.884;11.446;2022-08-16T01:23:01;16.15;;;13.02;;
28904;SDS011;60848;53.884;11.446;2022-08-16T01:25:38;14.75;;;13.05;;
28904;SDS011;60848;53.884;11.446;2022-08-16T01:28:25;14.20;;;12.73;;
28904;SDS011;60848;53.884;11.446;2022-08-16T01:30:57;16.55;;;14.90;;
28904;SDS011;60848;53.884;11.446;2022-08-16T01:33:26;16.60;;;15.00;;
28904;SDS011;60848;53.884;11.446;2022-08-16T01:36:01;16.83;;;12.95;;
28904;SDS011;60848;53.884;11.446;2022-08-16T01:38:38;15.15;;;13.45;;
28904;SDS011;60848;53.884;11.446;2022-08-16T01:41:19;15.02;;;13.25;;
28904;SDS011;60848;53.884;11.446;2022-08-16T01:43:52;17.88;;;13.50;;
28904;SDS011;60848;53.884;11.446;2022-08-16T01:46:28;16.80;;;13.73;;
28904;SDS011;60848;53.884;11.446;2022-08-16T01:49:16;16.00;;;14.30;;
28904;SDS011;60848;53.884;11.446;2022-08-16T01:51:53;15.30;;;13.52;;
28904;SDS011;60848;53.884;11.446;2022-08-16T01:54:44;14.85;;;13.13;;
28904;SDS011;60848;53.884;11.446;2022-08-16T01:57:20;15.68;;;14.07;;
28904;SDS011;60848;53.884;11.446;2022-08-16T01:59:50;16.08;;;14.27;;
28904;SDS011;60848;53.884;11.446;2022-08-16T02:02:20;15.65;;;14.13;;
28904;SDS011;60848;53.884;11.446;2022-08-16T02:04:54;15.73;;;14.00;;
28904;SDS011;60848;53.884;11.446;2022-08-16T02:07:24;15.98;;;13.95;;
28904;SDS011;60848;53.884;11.446;2022-08-16T02:09:56;16.48;;;13.77;;
28904;SDS011;60848;53.884;11.446;2022-08-16T02:12:38;17.40;;;15.02;;
28904;SDS011;60848;53.884;11.446;2022-08-16T02:15:22;16.83;;;14.73;;
28904;SDS011;60848;53.884;11.446;2022-08-16T02:17:54;16.45;;;14.73;;
28904;SDS011;60848;53.884;11.446;2022-08-16T02:20:27;19.55;;;15.35;;
28904;SDS011;60848;53.884;11.446;2022-08-16T02:22:58;16.25;;;14.57;;
28904;SDS011;60848;53.884;11.446;2022-08-16T02:25:32;15.68;;;14.05;;
28904;SDS011;60848;53.884;11.446;2022-08-16T02:28:20;15.65;;;14.05;;
28904;SDS011;60848;53.884;11.446;2022-08-16T02:30:50;17.70;;;15.27;;
28904;SDS011;60848;53.884;11.446;2022-08-16T02:33:19;17.35;;;14.57;;
28904;SDS011;60848;53.884;11.446;2022-08-16T02:36:12;16.88;;;14.32;;
28904;SDS011;60848;53.884;11.446;2022-08-16T02:39:02;19.83;;;14.82;;
28904;SDS011;60848;53.884;11.446;2022-08-16T02:41:33;16.52;;;14.82;;
28904;SDS011;60848;53.884;11.446;2022-08-16T02:44:06;18.15;;;16.25;;
28904;SDS011;60848;53.884;11.446;2022-08-16T02:46:41;17.30;;;15.45;;
28904;SDS011;60848;53.884;11.446;2022-08-16T02:49:17;18.13;;;16.23;;
28904;SDS011;60848;53.884;11.446;2022-08-16T02:51:48;18.23;;;15.90;;
28904;SDS011;60848;53.884;11.446;2022-08-16T02:54:17;18.00;;;15.85;;
28904;SDS011;60848;53.884;11.446;2022-08-16T02:56:50;18.83;;;16.15;;
28904;SDS011;60848;53.884;11.446;2022-08-16T02:59:20;17.98;;;15.98;;
28904;SDS011;60848;53.884;11.446;2022-08-16T03:01:49;19.13;;;16.63;;
28904;SDS011;60848;53.884;11.446;2022-08-16T03:04:25;19.77;;;16.83;;
28904;SDS011;60848;53.884;11.446;2022-08-16T03:07:14;18.92;;;16.92;;
28904;SDS011;60848;53.884;11.446;2022-08-16T03:09:53;18.80;;;16.90;;
28904;SDS011;60848;53.884;11.446;2022-08-16T03:12:27;18.10;;;16.27;;
28904;SDS011;60848;53.884;11.446;2022-08-16T03:15:17;18.70;;;16.73;;
28904;SDS011;60848;53.884;11.446;2022-08-16T03:17:49;19.05;;;16.98;;
28904;SDS011;60848;53.884;11.446;2022-08-16T03:20:22;18.75;;;16.55;;
28904;SDS011;60848;53.884;11.446;2022-08-16T03:23:00;19.05;;;17.05;;
28904;SDS011;60848;53.884;11.446;2022-08-16T03:25:30;19.55;;;17.48;;
28904;SDS011;60848;53.884;11.446;2022-08-16T03:28:10;17.95;;;16.15;;
28904;SDS011;60848;53.884;11.446;2022-08-16T03:30:44;18.25;;;16.35;;
28904;SDS011;60848;53.884;11.446;2022-08-16T03:33:16;19.25;;;16.83;;
28904;SDS011;60848;53.884;11.446;2022-08-16T03:35:52;20.77;;;16.38;;
28904;SDS011;60848;53.884;11.446;2022-08-16T03:38:45;21.15;;;17.67;;
28904;SDS011;60848;53.884;11.446;2022-08-16T03:41:16;18.60;;;16.70;;
28904;SDS011;60848;53.884;11.446;2022-08-16T03:43:57;18.58;;;16.67;;
28904;SDS011;60848;53.884;11.446;2022-08-16T03:46:29;19.27;;;17.17;;
28904;SDS011;60848;53.884;11.446;2022-08-16T03:49:23;20.83;;;17.60;;
28904;SDS011;60848;53.884;11.446;2022-08-16T03:52:04;19.65;;;17.55;;
28904;SDS011;60848;53.884;11.446;2022-08-16T03:54:36;18.50;;;16.50;;
28904;SDS011;60848;53.884;11.446;2022-08-16T03:57:23;19.80;;;17.60;;
28904;SDS011;60848;53.884;11.446;2022-08-16T04:00:02;18.63;;;16.67;;
28904;SDS011;60848;53.884;11.446;2022-08-16T04:03:03;20.50;;;17.20;;
28904;SDS011;60848;53.884;11.446;2022-08-16T04:05:39;19.75;;;16.25;;
28904;SDS011;60848;53.884;11.446;2022-08-16T04:08:13;19.83;;;16.27;;
28904;SDS011;60848;53.884;11.446;2022-08-16T04:10:53;19.50;;;17.17;;
28904;SDS011;60848;53.884;11.446;2022-08-16T04:13:25;20.45;;;16.73;;
28904;SDS011;60848;53.884;11.446;2022-08-16T04:16:15;18.52;;;16.63;;
28904;SDS011;60848;53.884;11.446;2022-08-16T04:18:53;19.02;;;16.92;;
28904;SDS011;60848;53.884;11.446;2022-08-16T04:21:29;19.00;;;16.60;;
28904;SDS011;60848;53.884;11.446;2022-08-16T04:23:59;21.10;;;16.75;;
28904;SDS011;60848;53.884;11.446;2022-08-16T04:26:28;25.55;;;17.98;;
28904;SDS011;60848;53.884;11.446;2022-08-16T04:28:59;26.90;;;18.10;;
28904;SDS011;60848;53.884;11.446;2022-08-16T04:31:47;29.23;;;16.58;;
28904;SDS011;60848;53.884;11.446;2022-08-16T04:34:29;47.03;;;23.83;;
28904;SDS011;60848;53.884;11.446;2022-08-16T04:37:00;19.58;;;17.33;;
28904;SDS011;60848;53.884;11.446;2022-08-16T04:39:34;19.95;;;17.35;;
28904;SDS011;60848;53.884;11.446;2022-08-16T04:44:52;21.08;;;17.00;;
28904;SDS011;60848;53.884;11.446;2022-08-16T04:47:27;19.88;;;17.58;;
28904;SDS011;60848;53.884;11.446;2022-08-16T04:50:07;20.00;;;17.70;;
28904;SDS011;60848;53.884;11.446;2022-08-16T04:52:55;19.57;;;17.53;;
28904;SDS011;60848;53.884;11.446;2022-08-16T04:55:27;21.85;;;17.63;;
28904;SDS011;60848;53.884;11.446;2022-08-16T04:58:04;21.38;;;18.02;;
28904;SDS011;60848;53.884;11.446;2022-08-16T05:00:56;24.92;;;18.17;;
28904;SDS011;60848;53.884;11.446;2022-08-16T05:03:25;19.52;;;17.50;;
28904;SDS011;60848;53.884;11.446;2022-08-16T05:08:32;18.95;;;16.90;;
28904;SDS011;60848;53.884;11.446;2022-08-16T05:11:07;21.98;;;17.30;;
28904;SDS011;60848;53.884;11.446;2022-08-16T05:13:37;20.20;;;18.00;;
28904;SDS011;60848;53.884;11.446;2022-08-16T05:16:14;21.73;;;18.73;;
28904;SDS011;60848;53.884;11.446;2022-08-16T05:18:52;21.80;;;18.70;;
28904;SDS011;60848;53.884;11.446;2022-08-16T05:21:26;23.08;;;18.13;;
28904;SDS011;60848;53.884;11.446;2022-08-16T05:24:06;26.07;;;18.33;;
28904;SDS011;60848;53.884;11.446;2022-08-16T05:26:36;21.27;;;19.17;;
28904;SDS011;60848;53.884;11.446;2022-08-16T05:29:15;21.08;;;18.88;;
28904;SDS011;60848;53.884;11.446;2022-08-16T05:31:59;21.00;;;18.85;;
28904;SDS011;60848;53.884;11.446;2022-08-16T05:34:28;23.05;;;19.15;;
28904;SDS011;60848;53.884;11.446;2022-08-16T05:36:58;21.92;;;19.58;;
28904;SDS011;60848;53.884;11.446;2022-08-16T05:39:33;21.50;;;19.27;;
28904;SDS011;60848;53.884;11.446;2022-08-16T05:42:07;27.10;;;21.40;;
28904;SDS011;60848;53.884;11.446;2022-08-16T05:44:38;23.48;;;20.00;;
28904;SDS011;60848;53.884;11.446;2022-08-16T05:47:10;23.42;;;21.02;;
28904;SDS011;60848;53.884;11.446;2022-08-16T05:49:43;25.33;;;20.08;;
28904;SDS011;60848;53.884;11.446;2022-08-16T05:52:18;23.83;;;20.95;;
28904;SDS011;60848;53.884;11.446;2022-08-16T05:54:53;23.30;;;20.80;;
28904;SDS011;60848;53.884;11.446;2022-08-16T05:57:31;24.60;;;21.33;;
28904;SDS011;60848;53.884;11.446;2022-08-16T06:00:03;24.23;;;21.08;;
28904;SDS011;60848;53.884;11.446;2022-08-16T06:02:37;24.80;;;21.42;;
28904;SDS011;60848;53.884;11.446;2022-08-16T06:05:36;22.60;;;20.20;;
28904;SDS011;60848;53.884;11.446;2022-08-16T06:08:08;21.75;;;19.38;;
28904;SDS011;60848;53.884;11.446;2022-08-16T06:10:58;24.40;;;21.70;;
28904;SDS011;60848;53.884;11.446;2022-08-16T06:13:37;22.00;;;19.73;;
28904;SDS011;60848;53.884;11.446;2022-08-16T06:16:12;22.00;;;19.77;;
28904;SDS011;60848;53.884;11.446;2022-08-16T06:18:45;23.45;;;20.40;;
28904;SDS011;60848;53.884;11.446;2022-08-16T06:21:16;25.27;;;20.50;;
28904;SDS011;60848;53.884;11.446;2022-08-16T06:23:54;23.02;;;20.77;;
28904;SDS011;60848;53.884;11.446;2022-08-16T06:26:28;22.23;;;19.85;;
28904;SDS011;60848;53.884;11.446;2022-08-16T06:29:05;23.42;;;20.88;;
28904;SDS011;60848;53.884;11.446;2022-08-16T06:31:37;23.55;;;21.15;;
28904;SDS011;60848;53.884;11.446;2022-08-16T06:34:15;24.25;;;21.67;;
28904;SDS011;60848;53.884;11.446;2022-08-16T06:37:07;28.13;;;25.10;;
28904;SDS011;60848;53.884;11.446;2022-08-16T06:39:38;23.80;;;21.08;;
28904;SDS011;60848;53.884;11.446;2022-08-16T06:42:25;24.20;;;21.10;;
28904;SDS011;60848;53.884;11.446;2022-08-16T06:45:12;24.50;;;21.92;;
28904;SDS011;60848;53.884;11.446;2022-08-16T06:47:47;26.15;;;23.45;;
28904;SDS011;60848;53.884;11.446;2022-08-16T06:50:25;25.40;;;22.70;;
28904;SDS011;60848;53.884;11.446;2022-08-16T06:52:57;26.67;;;22.83;;
28904;SDS011;60848;53.884;11.446;2022-08-16T06:55:41;26.17;;;23.48;;
28904;SDS011;60848;53.884;11.446;2022-08-16T06:58:12;24.60;;;22.13;;
28904;SDS011;60848;53.884;11.446;2022-08-16T07:00:56;26.00;;;23.20;;
28904;SDS011;60848;53.884;11.446;2022-08-16T07:03:28;25.27;;;22.58;;
28904;SDS011;60848;53.884;11.446;2022-08-16T07:06:17;25.85;;;22.80;;
28904;SDS011;60848;53.884;11.446;2022-08-16T07:08:53;26.85;;;24.15;;
28904;SDS011;60848;53.884;11.446;2022-08-16T07:11:24;25.40;;;22.70;;
28904;SDS011;60848;53.884;11.446;2022-08-16T07:14:16;23.48;;;21.17;;
28904;SDS011;60848;53.884;11.446;2022-08-16T07:16:54;23.40;;;20.95;;
28904;SDS011;60848;53.884;11.446;2022-08-16T07:19:25;24.90;;;21.92;;
28904;SDS011;60848;53.884;11.446;2022-08-16T07:22:20;25.85;;;22.13;;
28904;SDS011;60848;53.884;11.446;2022-08-16T07:25:15;22.70;;;20.38;;
28904;SDS011;60848;53.884;11.446;2022-08-16T07:27:45;25.77;;;21.20;;
28904;SDS011;60848;53.884;11.446;2022-08-16T07:30:19;23.27;;;20.77;;
28904;SDS011;60848;53.884;11.446;2022-08-16T07:33:10;23.15;;;20.73;;
28904;SDS011;60848;53.884;11.446;2022-08-16T07:35:42;23.08;;;20.50;;
28904;SDS011;60848;53.884;11.446;2022-08-16T07:38:16;24.55;;;21.98;;
28904;SDS011;60848;53.884;11.446;2022-08-16T07:40:53;23.38;;;21.08;;
28904;SDS011;60848;53.884;11.446;2022-08-16T07:43:29;25.20;;;22.58;;
28904;SDS011;60848;53.884;11.446;2022-08-16T07:46:02;24.35;;;21.75;;
28904;SDS011;60848;53.884;11.446;2022-08-16T07:48:51;24.90;;;21.58;;
28904;SDS011;60848;53.884;11.446;2022-08-16T07:51:21;23.15;;;20.63;;
28904;SDS011;60848;53.884;11.446;2022-08-16T07:53:49;24.20;;;21.60;;
28904;SDS011;60848;53.884;11.446;2022-08-16T07:56:35;24.30;;;21.80;;
28904;SDS011;60848;53.884;11.446;2022-08-16T07:59:05;24.85;;;22.35;;
28904;SDS011;60848;53.884;11.446;2022-08-16T08:01:34;23.77;;;21.30;;
28904;SDS011;60848;53.884;11.446;2022-08-16T08:04:04;22.73;;;20.13;;
28904;SDS011;60848;53.884;11.446;2022-08-16T08:06:40;24.48;;;21.88;;
28904;SDS011;60848;53.884;11.446;2022-08-16T08:09:12;24.58;;;21.98;;
28904;SDS011;60848;53.884;11.446;2022-08-16T08:11:43;22.58;;;20.27;;
28904;SDS011;60848;53.884;11.446;2022-08-16T08:14:35;22.30;;;19.85;;
28904;SDS011;60848;53.884;11.446;2022-08-16T08:17:04;21.40;;;19.10;;
28904;SDS011;60848;53.884;11.446;2022-08-16T08:19:34;21.52;;;18.90;;
28904;SDS011;60848;53.884;11.446;2022-08-16T08:22:07;21.73;;;18.65;;
28904;SDS011;60848;53.884;11.446;2022-08-16T08:24:51;24.15;;;18.48;;
28904;SDS011;60848;53.884;11.446;2022-08-16T08:27:29;22.10;;;18.20;;
28904;SDS011;60848;53.884;11.446;2022-08-16T08:30:02;20.20;;;17.57;;
28904;SDS011;60848;53.884;11.446;2022-08-16T08:32:52;18.77;;;15.93;;
28904;SDS011;60848;53.884;11.446;2022-08-16T08:35:33;18.50;;;16.58;;
28904;SDS011;60848;53.884;11.446;2022-08-16T08:38:05;19.63;;;17.00;;
28904;SDS011;60848;53.884;11.446;2022-08-16T08:40:40;16.70;;;15.00;;
28904;SDS011;60848;53.884;11.446;2022-08-16T08:43:11;15.18;;;13.65;;
28904;SDS011;60848;53.884;11.446;2022-08-16T08:45:56;15.55;;;13.98;;
28904;SDS011;60848;53.884;11.446;2022-08-16T08:48:25;16.40;;;14.68;;
28904;SDS011;60848;53.884;11.446;2022-08-16T08:51:04;14.65;;;13.07;;
28904;SDS011;60848;53.884;11.446;2022-08-16T08:53:42;13.98;;;12.20;;
28904;SDS011;60848;53.884;11.446;2022-08-16T08:56:25;12.88;;;11.48;;
28904;SDS011;60848;53.884;11.446;2022-08-16T08:59:35;14.57;;;11.93;;
28904;SDS011;60848;53.884;11.446;2022-08-16T09:02:10;12.55;;;11.23;;
28904;SDS011;60848;53.884;11.446;2022-08-16T09:04:51;13.32;;;11.20;;
28904;SDS011;60848;53.884;11.446;2022-08-16T09:07:25;12.38;;;10.93;;
28904;SDS011;60848;53.884;11.446;2022-08-16T09:10:15;12.23;;;10.53;;
28904;SDS011;60848;53.884;11.446;2022-08-16T09:12:50;11.85;;;9.93;;
28904;SDS011;60848;53.884;11.446;2022-08-16T09:15:22;11.45;;;10.20;;
28904;SDS011;60848;53.884;11.446;2022-08-16T09:18:00;9.90;;;9.00;;
28904;SDS011;60848;53.884;11.446;2022-08-16T09:20:49;8.32;;;7.53;;
28904;SDS011;60848;53.884;11.446;2022-08-16T09:23:26;9.10;;;8.20;;
28904;SDS011;60848;53.884;11.446;2022-08-16T09:26:03;10.10;;;8.98;;
28904;SDS011;60848;53.884;11.446;2022-08-16T09:28:55;9.63;;;8.57;;
28904;SDS011;60848;53.884;11.446;2022-08-16T09:31:44;9.70;;;8.70;;
28904;SDS011;60848;53.884;11.446;2022-08-16T09:34:20;10.43;;;8.80;;
28904;SDS011;60848;53.884;11.446;2022-08-16T09:36:53;9.02;;;8.13;;
28904;SDS011;60848;53.884;11.446;2022-08-16T09:39:25;10.00;;;8.30;;
28904;SDS011;60848;53.884;11.446;2022-08-16T09:42:07;10.95;;;8.68;;
28904;SDS011;60848;53.884;11.446;2022-08-16T09:44:36;10.45;;;8.10;;
28904;SDS011;60848;53.884;11.446;2022-08-16T09:47:24;8.40;;;7.53;;
28904;SDS011;60848;53.884;11.446;2022-08-16T09:50:15;9.18;;;8.02;;
28904;SDS011;60848;53.884;11.446;2022-08-16T09:52:48;15.50;;;8.93;;
28904;SDS011;60848;53.884;11.446;2022-08-16T09:55:17;9.05;;;7.22;;
28904;SDS011;60848;53.884;11.446;2022-08-16T09:57:50;10.68;;;7.78;;
28904;SDS011;60848;53.884;11.446;2022-08-16T10:00:19;9.18;;;7.50;;
28904;SDS011;60848;53.884;11.446;2022-08-16T10:03:07;16.08;;;8.25;;
28904;SDS011;60848;53.884;11.446;2022-08-16T10:05:40;13.50;;;8.40;;
28904;SDS011;60848;53.884;11.446;2022-08-16T10:08:09;21.13;;;12.35;;
28904;SDS011;60848;53.884;11.446;2022-08-16T10:10:55;10.55;;;8.30;;
28904;SDS011;60848;53.884;11.446;2022-08-16T10:13:50;7.97;;;7.15;;
28904;SDS011;60848;53.884;11.446;2022-08-16T10:16:20;7.17;;;6.40;;
28904;SDS011;60848;53.884;11.446;2022-08-16T10:21:33;6.93;;;5.93;;
28904;SDS011;60848;53.884;11.446;2022-08-16T10:24:03;7.18;;;6.43;;
28904;SDS011;60848;53.884;11.446;2022-08-16T10:26:32;7.55;;;6.13;;
28904;SDS011;60848;53.884;11.446;2022-08-16T10:29:21;9.13;;;7.15;;
28904;SDS011;60848;53.884;11.446;2022-08-16T10:32:10;7.90;;;6.57;;
28904;SDS011;60848;53.884;11.446;2022-08-16T10:34:46;7.30;;;6.57;;
28904;SDS011;60848;53.884;11.446;2022-08-16T10:37:19;8.02;;;7.30;;
28904;SDS011;60848;53.884;11.446;2022-08-16T10:40:02;10.95;;;6.90;;
28904;SDS011;60848;53.884;11.446;2022-08-16T10:42:52;7.88;;;7.07;;
28904;SDS011;60848;53.884;11.446;2022-08-16T10:45:20;9.07;;;6.80;;
28904;SDS011;60848;53.884;11.446;2022-08-16T10:47:55;8.98;;;7.20;;
28904;SDS011;60848;53.884;11.446;2022-08-16T10:50:31;8.50;;;7.57;;
28904;SDS011;60848;53.884;11.446;2022-08-16T10:53:05;9.23;;;6.95;;
28904;SDS011;60848;53.884;11.446;2022-08-16T10:55:34;8.15;;;7.35;;
28904;SDS011;60848;53.884;11.446;2022-08-16T10:58:10;8.45;;;6.72;;
28904;SDS011;60848;53.884;11.446;2022-08-16T11:00:42;8.43;;;7.00;;
28904;SDS011;60848;53.884;11.446;2022-08-16T11:03:14;7.47;;;6.72;;
28904;SDS011;60848;53.884;11.446;2022-08-16T11:06:02;7.82;;;6.75;;
28904;SDS011;60848;53.884;11.446;2022-08-16T11:08:36;7.13;;;6.28;;
28904;SDS011;60848;53.884;11.446;2022-08-16T11:11:11;9.15;;;6.80;;
28904;SDS011;60848;53.884;11.446;2022-08-16T11:13:45;8.55;;;6.20;;
28904;SDS011;60848;53.884;11.446;2022-08-16T11:16:26;7.30;;;6.15;;
28904;SDS011;60848;53.884;11.446;2022-08-16T11:19:15;9.75;;;6.40;;
28904;SDS011;60848;53.884;11.446;2022-08-16T11:21:44;7.75;;;5.75;;
28904;SDS011;60848;53.884;11.446;2022-08-16T11:24:34;8.30;;;6.50;;
28904;SDS011;60848;53.884;11.446;2022-08-16T11:27:12;7.15;;;6.45;;
28904;SDS011;60848;53.884;11.446;2022-08-16T11:29:46;9.05;;;6.00;;
28904;SDS011;60848;53.884;11.446;2022-08-16T11:32:18;6.90;;;5.97;;
28904;SDS011;60848;53.884;11.446;2022-08-16T11:34:56;8.85;;;5.80;;
28904;SDS011;60848;53.884;11.446;2022-08-16T11:37:40;8.88;;;5.43;;
28904;SDS011;60848;53.884;11.446;2022-08-16T11:40:32;6.68;;;6.07;;
28904;SDS011;60848;53.884;11.446;2022-08-16T11:43:04;8.95;;;6.40;;
28904;SDS011;60848;53.884;11.446;2022-08-16T11:45:35;7.03;;;6.40;;
28904;SDS011;60848;53.884;11.446;2022-08-16T11:48:08;7.25;;;6.38;;
28904;SDS011;60848;53.884;11.446;2022-08-16T11:50:36;6.60;;;5.90;;
28904;SDS011;60848;53.884;11.446;2022-08-16T11:53:04;9.73;;;8.63;;
28904;SDS011;60848;53.884;11.446;2022-08-16T11:55:38;6.75;;;5.88;;
28904;SDS011;60848;53.884;11.446;2022-08-16T11:58:10;7.65;;;6.30;;
28904;SDS011;60848;53.884;11.446;2022-08-16T12:00:41;7.67;;;6.20;;
28904;SDS011;60848;53.884;11.446;2022-08-16T12:03:19;6.53;;;5.93;;
28904;SDS011;60848;53.884;11.446;2022-08-16T12:06:02;7.35;;;5.65;;
28904;SDS011;60848;53.884;11.446;2022-08-16T12:08:51;6.68;;;5.97;;
28904;SDS011;60848;53.884;11.446;2022-08-16T12:11:28;7.38;;;5.88;;
28904;SDS011;60848;53.884;11.446;2022-08-16T12:13:58;6.90;;;6.03;;
28904;SDS011;60848;53.884;11.446;2022-08-16T12:19:00;7.60;;;6.38;;
28904;SDS011;60848;53.884;11.446;2022-08-16T12:21:29;8.18;;;6.30;;
28904;SDS011;60848;53.884;11.446;2022-08-16T12:24:18;6.35;;;5.63;;
28904;SDS011;60848;53.884;11.446;2022-08-16T12:26:50;6.93;;;6.22;;
28904;SDS011;60848;53.884;11.446;2022-08-16T12:29:19;8.48;;;5.93;;
28904;SDS011;60848;53.884;11.446;2022-08-16T12:31:51;6.20;;;5.28;;
28904;SDS011;60848;53.884;11.446;2022-08-16T12:34:37;6.82;;;5.10;;
28904;SDS011;60848;53.884;11.446;2022-08-16T12:37:21;7.00;;;4.93;;
28904;SDS011;60848;53.884;11.446;2022-08-16T12:39:53;6.13;;;4.68;;
28904;SDS011;60848;53.884;11.446;2022-08-16T12:42:25;7.05;;;5.18;;
28904;SDS011;60848;53.884;11.446;2022-08-16T12:45:01;6.90;;;5.30;;
28904;SDS011;60848;53.884;11.446;2022-08-16T12:47:31;5.75;;;5.10;;
28904;SDS011;60848;53.884;11.446;2022-08-16T12:50:23;7.97;;;6.55;;
28904;SDS011;60848;53.884;11.446;2022-08-16T12:52:59;7.97;;;6.57;;
28904;SDS011;60848;53.884;11.446;2022-08-16T12:55:31;6.13;;;5.18;;
28904;SDS011;60848;53.884;11.446;2022-08-16T12:58:09;5.55;;;5.03;;
28904;SDS011;60848;53.884;11.446;2022-08-16T13:01:00;7.38;;;4.97;;
28904;SDS011;60848;53.884;11.446;2022-08-16T13:03:28;5.55;;;4.82;;
28904;SDS011;60848;53.884;11.446;2022-08-16T13:06:05;6.93;;;5.00;;
28904;SDS011;60848;53.884;11.446;2022-08-16T13:08:34;6.43;;;5.18;;
28904;SDS011;60848;53.884;11.446;2022-08-16T13:13:35;6.75;;;5.18;;
28904;SDS011;60848;53.884;11.446;2022-08-16T13:16:04;6.43;;;5.05;;
28904;SDS011;60848;53.884;11.446;2022-08-16T13:18:46;6.28;;;5.20;;
28904;SDS011;60848;53.884;11.446;2022-08-16T13:21:19;6.47;;;5.20;;
28904;SDS011;60848;53.884;11.446;2022-08-16T13:23:50;6.35;;;5.63;;
28904;SDS011;60848;53.884;11.446;2022-08-16T13:26:21;6.28;;;5.50;;
28904;SDS011;60848;53.884;11.446;2022-08-16T13:28:53;5.88;;;5.32;;
28904;SDS011;60848;53.884;11.446;2022-08-16T13:31:22;6.70;;;5.38;;
28904;SDS011;60848;53.884;11.446;2022-08-16T13:33:51;7.85;;;5.13;;
28904;SDS011;60848;53.884;11.446;2022-08-16T13:36:24;6.75;;;5.05;;
28904;SDS011;60848;53.884;11.446;2022-08-16T13:39:16;5.75;;;5.07;;
28904;SDS011;60848;53.884;11.446;2022-08-16T13:41:46;6.15;;;5.40;;
28904;SDS011;60848;53.884;11.446;2022-08-16T13:44:20;5.60;;;4.45;;
28904;SDS011;60848;53.884;11.446;2022-08-16T13:47:09;11.57;;;10.38;;
28904;SDS011;60848;53.884;11.446;2022-08-16T13:49:38;6.45;;;5.40;;
28904;SDS011;60848;53.884;11.446;2022-08-16T13:52:08;6.57;;;5.75;;
28904;SDS011;60848;53.884;11.446;2022-08-16T13:54:40;5.82;;;5.15;;
28904;SDS011;60848;53.884;11.446;2022-08-16T13:57:10;9.45;;;7.25;;
28904;SDS011;60848;53.884;11.446;2022-08-16T13:59:42;6.32;;;5.47;;
28904;SDS011;60848;53.884;11.446;2022-08-16T14:02:15;7.18;;;6.30;;
28904;SDS011;60848;53.884;11.446;2022-08-16T14:04:46;7.53;;;6.00;;
28904;SDS011;60848;53.884;11.446;2022-08-16T14:07:30;7.85;;;6.72;;
28904;SDS011;60848;53.884;11.446;2022-08-16T14:10:06;7.28;;;6.57;;
28904;SDS011;60848;53.884;11.446;2022-08-16T14:12:40;8.18;;;6.57;;
28904;SDS011;60848;53.884;11.446;2022-08-16T14:15:11;9.05;;;8.23;;
28904;SDS011;60848;53.884;11.446;2022-08-16T14:17:41;8.52;;;6.40;;
28904;SDS011;60848;53.884;11.446;2022-08-16T14:20:30;10.88;;;8.15;;
28904;SDS011;60848;53.884;11.446;2022-08-16T14:22:58;7.53;;;5.90;;
28904;SDS011;60848;53.884;11.446;2022-08-16T14:25:26;9.73;;;7.20;;
28904;SDS011;60848;53.884;11.446;2022-08-16T14:27:55;6.70;;;5.90;;
28904;SDS011;60848;53.884;11.446;2022-08-16T14:30:24;7.45;;;5.28;;
28904;SDS011;60848;53.884;11.446;2022-08-16T14:32:53;5.75;;;5.25;;
28904;SDS011;60848;53.884;11.446;2022-08-16T14:35:23;7.10;;;5.45;;
28904;SDS011;60848;53.884;11.446;2022-08-16T14:38:13;6.60;;;6.00;;
28904;SDS011;60848;53.884;11.446;2022-08-16T14:40:43;6.43;;;5.65;;
28904;SDS011;60848;53.884;11.446;2022-08-16T14:43:20;7.07;;;6.13;;
28904;SDS011;60848;53.884;11.446;2022-08-16T14:45:49;7.32;;;5.28;;
28904;SDS011;60848;53.884;11.446;2022-08-16T14:48:23;6.13;;;5.20;;
28904;SDS011;60848;53.884;11.446;2022-08-16T14:50:52;8.90;;;5.60;;
28904;SDS011;60848;53.884;11.446;2022-08-16T14:53:22;5.80;;;5.20;;
28904;SDS011;60848;53.884;11.446;2022-08-16T14:55:51;7.28;;;5.43;;
28904;SDS011;60848;53.884;11.446;2022-08-16T14:58:20;7.40;;;5.10;;
28904;SDS011;60848;53.884;11.446;2022-08-16T15:01:03;7.75;;;5.70;;
28904;SDS011;60848;53.884;11.446;2022-08-16T15:03:35;17.45;;;15.68;;
28904;SDS011;60848;53.884;11.446;2022-08-16T15:06:10;13.52;;;11.88;;
28904;SDS011;60848;53.884;11.446;2022-08-16T15:08:41;7.40;;;6.65;;
28904;SDS011;60848;53.884;11.446;2022-08-16T15:11:11;6.63;;;5.38;;
28904;SDS011;60848;53.884;11.446;2022-08-16T15:13:39;7.35;;;5.68;;
28904;SDS011;60848;53.884;11.446;2022-08-16T15:16:09;6.55;;;5.40;;
28904;SDS011;60848;53.884;11.446;2022-08-16T15:18:37;6.63;;;5.63;;
28904;SDS011;60848;53.884;11.446;2022-08-16T15:21:11;6.35;;;5.60;;
28904;SDS011;60848;53.884;11.446;2022-08-16T15:23:40;7.18;;;5.93;;
28904;SDS011;60848;53.884;11.446;2022-08-16T15:26:09;6.72;;;5.50;;
28904;SDS011;60848;53.884;11.446;2022-08-16T15:28:58;9.73;;;6.00;;